createdAt,value
2019-01-11T00:00:25.955Z,-2.40
2019-01-11T00:02:54.159Z,-2.40
2019-01-11T00:05:20.607Z,-2.40
2019-01-11T00:07:47.027Z,-2.50
2019-01-11T00:10:13.514Z,-2.50
2019-01-11T00:12:39.961Z,-2.50
2019-01-11T00:15:06.466Z,-2.50
2019-01-11T00:17:32.992Z,-2.60
2019-01-11T00:20:03.462Z,-2.50
2019-01-11T00:22:28.333Z,-2.50
2019-01-11T00:24:54.890Z,-2.50
2019-01-11T00:27:21.282Z,-2.40
2019-01-11T00:29:47.706Z,-2.40
2019-01-11T00:32:14.087Z,-2.40
2019-01-11T00:34:40.559Z,-2.40
2019-01-11T00:37:06.947Z,-2.40
2019-01-11T00:39:33.385Z,-2.30
2019-01-11T00:41:59.836Z,-2.40
2019-01-11T00:44:26.354Z,-2.40
2019-01-11T00:46:52.791Z,-2.40
2019-01-11T00:49:20.317Z,-2.40
2019-01-11T00:51:46.780Z,-2.30
2019-01-11T00:54:13.254Z,-2.20
2019-01-11T00:56:39.618Z,-2.20
2019-01-11T00:59:06.076Z,-2.20
2019-01-11T01:01:32.467Z,-2.20
2019-01-11T01:03:58.912Z,-2.20
2019-01-11T01:06:25.319Z,-2.20
2019-01-11T01:08:51.791Z,-2.10
2019-01-11T01:11:18.216Z,-2.10
2019-01-11T01:13:44.661Z,-2.10
2019-01-11T01:16:11.152Z,-2.20
2019-01-11T01:18:37.723Z,-2.10
2019-01-11T01:21:04.184Z,-2.20
2019-01-11T01:23:30.619Z,-2.20
2019-01-11T01:25:56.975Z,-2.10
2019-01-11T01:28:23.448Z,-2.10
2019-01-11T01:30:49.867Z,-2.10
2019-01-11T01:33:16.372Z,-2.10
2019-01-11T01:35:42.785Z,-2.20
2019-01-11T01:38:09.371Z,-2.20
2019-01-11T01:40:35.729Z,-2.20
2019-01-11T01:43:02.144Z,-2.20
2019-01-11T01:45:28.485Z,-2.20
2019-01-11T01:47:54.949Z,-2.10
2019-01-11T01:50:21.333Z,-2.10
2019-01-11T01:52:47.818Z,-2.10
2019-01-11T01:55:14.187Z,-2.10
2019-01-11T01:57:40.671Z,-2.10
2019-01-11T02:00:10.797Z,-2.10
2019-01-11T02:02:37.183Z,-2.10
2019-01-11T02:05:06.489Z,-2.10
2019-01-11T02:07:32.906Z,-2.10
2019-01-11T02:09:59.299Z,-2.20
2019-01-11T02:12:25.785Z,-2.20
2019-01-11T02:14:52.304Z,-2.10
2019-01-11T02:17:18.708Z,-2.10
2019-01-11T02:19:45.214Z,-2.10
2019-01-11T02:22:11.683Z,-2.10
2019-01-11T02:24:38.099Z,-2.10
2019-01-11T02:27:04.474Z,-2.10
2019-01-11T02:29:30.903Z,-2.10
2019-01-11T02:31:57.266Z,-2.10
2019-01-11T02:34:23.668Z,-2.10
2019-01-11T02:36:50.055Z,-1.90
2019-01-11T02:39:16.503Z,-2.00
2019-01-11T02:41:42.903Z,-2.00
2019-01-11T02:44:09.412Z,-2.10
2019-01-11T02:46:35.849Z,-2.00
2019-01-11T02:49:02.189Z,-2.00
2019-01-11T02:51:28.611Z,-2.10
2019-01-11T02:53:55.049Z,-2.10
2019-01-11T02:56:21.547Z,-2.10
2019-01-11T02:58:47.929Z,-2.00
2019-01-11T03:01:14.398Z,-2.00
2019-01-11T03:03:40.794Z,-1.90
2019-01-11T03:06:07.259Z,-1.80
2019-01-11T03:08:33.764Z,-1.90
2019-01-11T03:11:01.335Z,-1.90
2019-01-11T03:13:27.834Z,-1.90
2019-01-11T03:15:54.330Z,-2.00
2019-01-11T03:18:20.799Z,-2.00
2019-01-11T03:20:47.259Z,-1.90
2019-01-11T03:23:13.704Z,-1.80
2019-01-11T03:25:40.157Z,-1.80
2019-01-11T03:28:06.607Z,-1.90
2019-01-11T03:30:33.009Z,-1.80
2019-01-11T03:32:59.363Z,-1.90
2019-01-11T03:35:25.766Z,-1.90
2019-01-11T03:37:52.154Z,-1.90
2019-01-11T03:40:20.519Z,-1.90
2019-01-11T03:42:46.976Z,-1.90
2019-01-11T03:45:15.667Z,-1.90
2019-01-11T03:47:42.217Z,-1.80
2019-01-11T03:50:10.976Z,-1.90
2019-01-11T03:52:37.401Z,-1.90
2019-01-11T03:55:06.411Z,-1.90
2019-01-11T03:57:32.851Z,-2.00
2019-01-11T03:59:59.239Z,-2.00
2019-01-11T04:02:25.660Z,-2.00
2019-01-11T04:04:52.123Z,-2.10
2019-01-11T04:07:18.487Z,-2.10
2019-01-11T04:09:44.899Z,-2.10
2019-01-11T04:12:11.265Z,-2.20
2019-01-11T04:17:51.681Z,-2.20
2019-01-11T04:20:18.091Z,-2.30
2019-01-11T04:22:49.422Z,-2.30
2019-01-11T04:25:17.737Z,-2.30
2019-01-11T04:27:44.124Z,-2.40
2019-01-11T04:30:12.637Z,-2.40
2019-01-11T04:32:39.020Z,-2.50
2019-01-11T04:35:05.444Z,-2.50
2019-01-11T04:37:31.849Z,-2.60
2019-01-11T04:39:58.227Z,-2.70
2019-01-11T04:42:24.637Z,-2.70
2019-01-11T04:44:50.975Z,-2.70
2019-01-11T04:47:18.371Z,-2.80
2019-01-11T04:49:44.882Z,-2.90
2019-01-11T04:52:11.293Z,-3.00
2019-01-11T04:54:37.740Z,-3.00
2019-01-11T04:57:04.141Z,-3.10
2019-01-11T04:59:30.542Z,-3.10
2019-01-11T05:01:56.952Z,-3.10
2019-01-11T05:04:23.347Z,-3.20
2019-01-11T05:06:49.783Z,-3.20
2019-01-11T05:09:16.182Z,-3.20
2019-01-11T05:11:42.678Z,-3.20
2019-01-11T05:14:09.193Z,-3.20
2019-01-11T05:16:39.478Z,-3.00
2019-01-11T05:19:03.924Z,-2.90
2019-01-11T05:21:30.311Z,-2.70
2019-01-11T05:23:56.757Z,-2.70
2019-01-11T05:26:23.131Z,-2.60
2019-01-11T05:28:49.597Z,-2.50
2019-01-11T05:31:15.947Z,-2.40
2019-01-11T05:33:42.405Z,-2.40
2019-01-11T05:36:08.785Z,-2.40
2019-01-11T05:38:35.234Z,-2.40
2019-01-11T05:41:01.638Z,-2.50
2019-01-11T05:43:28.367Z,-2.40
2019-01-11T05:45:54.787Z,-2.50
2019-01-11T05:48:21.124Z,-2.50
2019-01-11T05:50:47.508Z,-2.50
2019-01-11T05:53:13.922Z,-2.40
2019-01-11T05:55:47.225Z,-2.40
2019-01-11T05:58:24.804Z,-2.40
2019-01-11T06:00:51.232Z,-2.40
2019-01-11T06:03:17.597Z,-2.40
2019-01-11T06:05:44.024Z,-2.40
2019-01-11T06:08:12.296Z,-2.30
2019-01-11T06:10:38.729Z,-2.30
2019-01-11T06:13:05.086Z,-2.30
2019-01-11T06:15:31.485Z,-2.10
2019-01-11T06:17:57.857Z,-2.10
2019-01-11T06:20:30.007Z,-2.10
2019-01-11T06:22:52.490Z,-2.10
2019-01-11T06:25:18.933Z,-2.10
2019-01-11T06:27:45.403Z,-2.00
2019-01-11T06:30:12.746Z,-2.00
2019-01-11T06:32:39.295Z,-2.10
2019-01-11T06:35:05.651Z,-2.00
2019-01-11T06:37:32.060Z,-2.00
2019-01-11T06:39:58.528Z,-2.00
2019-01-11T06:42:25.116Z,-1.90
2019-01-11T06:44:51.479Z,-2.00
2019-01-11T06:47:18.538Z,-1.90
2019-01-11T06:49:45.021Z,-1.90
2019-01-11T06:52:11.435Z,-1.90
2019-01-11T06:54:37.808Z,-1.90
2019-01-11T06:57:04.229Z,-1.80
2019-01-11T06:59:44.409Z,-1.80
2019-01-11T07:02:10.889Z,-1.80
2019-01-11T07:04:37.374Z,-1.80
2019-01-11T07:07:03.752Z,-1.80
2019-01-11T07:09:30.242Z,-1.80
2019-01-11T07:11:56.633Z,-1.90
2019-01-11T07:14:23.101Z,-1.80
2019-01-11T07:16:49.591Z,-1.80
2019-01-11T07:19:16.094Z,-1.80
2019-01-11T07:21:42.997Z,-1.80
2019-01-11T07:24:09.392Z,-1.80
2019-01-11T07:26:35.796Z,-1.80
2019-01-11T07:29:02.240Z,-1.80
2019-01-11T07:31:28.711Z,-1.80
2019-01-11T07:33:55.147Z,-1.80
2019-01-11T07:36:26.462Z,-1.70
2019-01-11T07:38:53.024Z,-1.70
2019-01-11T07:41:19.357Z,-1.60
2019-01-11T07:43:45.792Z,-1.60
2019-01-11T07:46:12.171Z,-1.50
2019-01-11T07:48:38.665Z,-1.50
2019-01-11T07:51:05.105Z,-1.40
2019-01-11T07:53:31.642Z,-1.30
2019-01-11T07:55:58.153Z,-1.30
2019-01-11T07:58:24.613Z,-1.20
2019-01-11T08:00:51.014Z,-1.30
2019-01-11T08:03:17.529Z,-1.20
2019-01-11T08:05:43.915Z,-1.20
2019-01-11T08:08:10.327Z,-1.30
2019-01-11T08:10:36.705Z,-1.30
2019-01-11T08:13:03.111Z,-1.30
2019-01-11T08:15:29.457Z,-1.40
2019-01-11T08:17:55.902Z,-1.40
2019-01-11T08:20:22.273Z,-1.50
2019-01-11T08:22:49.731Z,-1.50
2019-01-11T08:25:16.718Z,-1.40
2019-01-11T08:27:44.041Z,-1.40
2019-01-11T08:30:13.031Z,-1.20
2019-01-11T08:32:39.461Z,-1.20
2019-01-11T08:35:08.924Z,-1.10
2019-01-11T08:37:35.946Z,-0.90
2019-01-11T08:40:04.328Z,-0.80
2019-01-11T08:42:30.708Z,-0.70
2019-01-11T08:44:58.558Z,-0.60
2019-01-11T08:47:24.881Z,-0.50
2019-01-11T08:49:51.283Z,-0.50
2019-01-11T08:52:17.689Z,-0.40
2019-01-11T08:54:44.133Z,-0.40
2019-01-11T08:57:10.577Z,-0.40
2019-01-11T08:59:37.005Z,-0.40
2019-01-11T09:02:03.408Z,-0.30
2019-01-11T09:04:29.751Z,-0.40
2019-01-11T09:06:56.141Z,-0.40
2019-01-11T09:09:22.468Z,-0.40
2019-01-11T09:11:48.862Z,-0.40
2019-01-11T09:14:17.189Z,-0.40
2019-01-11T09:16:43.646Z,-0.40
2019-01-11T09:19:10.090Z,-0.30
2019-01-11T09:21:41.627Z,-0.30
2019-01-11T09:24:04.808Z,-0.30
2019-01-11T09:26:31.182Z,-0.30
2019-01-11T09:28:57.720Z,-0.30
2019-01-11T09:31:24.566Z,-0.20
2019-01-11T09:33:51.395Z,-0.30
2019-01-11T09:36:18.119Z,-0.20
2019-01-11T09:38:44.555Z,-0.10
2019-01-11T09:41:10.942Z,0.10
2019-01-11T09:43:37.382Z,0.30
2019-01-11T09:46:03.745Z,0.40
2019-01-11T09:48:30.112Z,0.50
2019-01-11T09:50:56.568Z,0.60
2019-01-11T09:53:22.977Z,0.60
2019-01-11T09:55:49.466Z,0.60
2019-01-11T09:58:16.017Z,0.50
2019-01-11T10:00:43.144Z,0.50
2019-01-11T10:03:09.774Z,0.60
2019-01-11T10:05:36.195Z,0.60
2019-01-11T10:08:02.572Z,0.60
2019-01-11T10:10:28.929Z,0.80
2019-01-11T10:12:55.358Z,1.00
2019-01-11T10:15:21.765Z,1.10
2019-01-11T10:17:49.811Z,1.40
2019-01-11T10:20:16.166Z,1.50
2019-01-11T10:22:42.682Z,1.70
2019-01-11T10:25:09.776Z,2.00
2019-01-11T10:27:37.269Z,2.20
2019-01-11T10:30:13.034Z,2.70
2019-01-11T10:32:39.488Z,3.10
2019-01-11T10:35:07.207Z,3.20
2019-01-11T10:37:33.742Z,3.30
2019-01-11T10:40:00.213Z,3.40
2019-01-11T10:42:26.612Z,3.70
2019-01-11T10:44:53.123Z,3.50
2019-01-11T10:47:19.583Z,3.10
2019-01-11T10:49:46.044Z,2.70
2019-01-11T10:52:12.434Z,2.30
2019-01-11T10:54:41.723Z,2.00
2019-01-11T10:57:08.132Z,1.90
2019-01-11T10:59:34.537Z,1.80
2019-01-11T11:02:00.977Z,1.60
2019-01-11T11:04:27.410Z,1.50
2019-01-11T11:06:53.795Z,1.40
2019-01-11T11:09:20.228Z,1.40
2019-01-11T11:11:46.643Z,1.50
2019-01-11T11:14:12.990Z,1.30
2019-01-11T11:16:40.498Z,1.20
2019-01-11T11:19:06.858Z,1.20
2019-01-11T11:21:34.765Z,1.00
2019-01-11T11:24:01.386Z,1.00
2019-01-11T11:26:27.802Z,1.10
2019-01-11T11:28:54.179Z,1.00
2019-01-11T11:31:20.630Z,1.00
2019-01-11T11:33:47.099Z,1.00
2019-01-11T11:36:13.496Z,1.00
2019-01-11T11:38:40.942Z,1.00
2019-01-11T11:41:07.833Z,1.00
2019-01-11T11:43:34.183Z,1.00
2019-01-11T11:46:00.697Z,1.00
2019-01-11T11:48:27.175Z,1.00
2019-01-11T11:50:53.601Z,1.00
2019-01-11T11:53:19.945Z,0.90
2019-01-11T11:55:46.673Z,1.00
2019-01-11T11:58:13.291Z,1.00
2019-01-11T12:00:39.791Z,1.00
2019-01-11T12:03:06.215Z,0.90
2019-01-11T12:05:32.652Z,0.80
2019-01-11T12:07:59.033Z,0.80
2019-01-11T12:10:26.061Z,0.80
2019-01-11T12:12:52.684Z,0.80
2019-01-11T12:15:19.132Z,0.80
2019-01-11T12:17:46.484Z,0.80
2019-01-11T12:20:16.824Z,0.70
2019-01-11T12:22:43.299Z,0.70
2019-01-11T12:25:09.704Z,0.60
2019-01-11T12:27:36.287Z,0.60
2019-01-11T12:30:06.471Z,0.60
2019-01-11T12:32:32.928Z,0.60
2019-01-11T12:34:59.339Z,0.60
2019-01-11T12:37:25.819Z,0.60
2019-01-11T12:39:52.245Z,0.60
2019-01-11T12:42:18.812Z,0.60
2019-01-11T12:44:45.214Z,0.60
2019-01-11T12:47:11.643Z,0.70
2019-01-11T12:49:38.035Z,0.60
2019-01-11T12:52:04.436Z,0.60
2019-01-11T12:54:30.803Z,0.70
2019-01-11T12:56:57.219Z,0.70
2019-01-11T12:59:24.615Z,0.70
2019-01-11T13:01:51.116Z,0.60
2019-01-11T13:04:17.481Z,0.60
2019-01-11T13:06:44.012Z,0.60
2019-01-11T13:09:10.377Z,0.60
2019-01-11T13:11:36.892Z,0.60
2019-01-11T13:14:03.334Z,0.60
2019-01-11T13:16:29.950Z,0.60
2019-01-11T13:18:56.403Z,0.60
2019-01-11T13:21:22.807Z,0.50
2019-01-11T13:23:49.304Z,0.50
2019-01-11T13:26:15.679Z,0.60
2019-01-11T13:28:42.117Z,0.50
2019-01-11T13:31:08.912Z,0.50
2019-01-11T13:33:35.496Z,0.50
2019-01-11T13:36:03.742Z,0.50
2019-01-11T13:38:30.398Z,0.60
2019-01-11T13:40:56.933Z,0.60
2019-01-11T13:43:23.317Z,0.50
2019-01-11T13:45:49.727Z,0.50
2019-01-11T13:48:16.268Z,0.50
2019-01-11T13:50:42.788Z,0.50
2019-01-11T13:53:09.221Z,0.50
2019-01-11T13:55:35.623Z,0.50
2019-01-11T13:58:02.731Z,0.60
2019-01-11T14:00:29.129Z,0.50
2019-01-11T14:02:55.647Z,0.50
2019-01-11T14:05:22.075Z,0.60
2019-01-11T14:07:48.650Z,0.50
2019-01-11T14:10:14.987Z,0.50
2019-01-11T14:12:41.523Z,0.50
2019-01-11T14:15:09.869Z,0.50
2019-01-11T14:17:36.521Z,0.40
2019-01-11T14:20:05.471Z,0.40
2019-01-11T14:22:31.861Z,0.40
2019-01-11T14:24:58.248Z,0.40
2019-01-11T14:27:24.935Z,0.40
2019-01-11T14:29:51.300Z,0.40
2019-01-11T14:32:17.963Z,0.40
2019-01-11T14:34:44.854Z,0.40
2019-01-11T14:37:11.234Z,0.40
2019-01-11T14:39:37.750Z,0.40
2019-01-11T14:42:04.181Z,0.40
2019-01-11T14:44:30.732Z,0.40
2019-01-11T14:46:57.121Z,0.40
2019-01-11T14:49:23.495Z,0.40
2019-01-11T14:51:50.125Z,0.40
2019-01-11T14:54:16.526Z,0.40
2019-01-11T14:56:42.945Z,0.40
2019-01-11T14:59:09.329Z,0.40
2019-01-11T15:01:35.870Z,0.40
2019-01-11T15:04:02.253Z,0.40
2019-01-11T15:06:28.844Z,0.50
2019-01-11T15:08:55.172Z,0.40
2019-01-11T15:11:21.614Z,0.40
2019-01-11T15:13:48.005Z,0.40
2019-01-11T15:16:14.452Z,0.40
2019-01-11T15:18:40.873Z,0.40
2019-01-11T15:21:07.301Z,0.40
2019-01-11T15:23:33.836Z,0.40
2019-01-11T15:26:01.458Z,0.50
2019-01-11T15:28:27.814Z,0.50
2019-01-11T15:30:54.211Z,0.50
2019-01-11T15:33:20.620Z,0.50
2019-01-11T15:35:47.022Z,0.50
2019-01-11T15:38:13.755Z,0.50
2019-01-11T15:40:40.152Z,0.50
2019-01-11T15:43:06.613Z,0.50
2019-01-11T15:45:33.099Z,0.60
2019-01-11T15:48:00.534Z,0.60
2019-01-11T15:50:49.809Z,0.60
2019-01-11T15:53:16.204Z,0.60
2019-01-11T15:55:42.725Z,0.60
2019-01-11T15:58:09.073Z,0.60
2019-01-11T16:00:40.549Z,0.60
2019-01-11T16:03:07.001Z,0.60
2019-01-11T16:05:33.381Z,0.70
2019-01-11T16:07:59.810Z,0.70
2019-01-11T16:10:26.360Z,0.70
2019-01-11T16:12:53.105Z,0.70
2019-01-11T16:15:34.827Z,0.60
2019-01-11T16:18:07.822Z,0.70
2019-01-11T16:20:34.220Z,0.80
2019-01-11T16:23:01.756Z,0.70
2019-01-11T16:25:28.100Z,0.70
2019-01-11T16:27:54.700Z,0.70
2019-01-11T16:30:22.055Z,0.70
2019-01-11T16:32:48.564Z,0.70
2019-01-11T16:35:15.522Z,0.70
2019-01-11T16:37:42.179Z,0.70
2019-01-11T16:40:10.803Z,0.70
2019-01-11T16:42:38.805Z,0.80
2019-01-11T16:45:12.579Z,0.80
2019-01-11T16:47:39.715Z,0.80
2019-01-11T16:50:13.069Z,0.70
2019-01-11T16:52:46.012Z,0.70
2019-01-11T16:55:08.725Z,0.80
2019-01-11T16:57:35.105Z,0.80
2019-01-11T17:00:07.610Z,0.80
2019-01-11T17:02:36.697Z,0.80
2019-01-11T17:05:04.774Z,0.80
2019-01-11T17:07:31.311Z,0.80
2019-01-11T17:09:57.733Z,0.80
2019-01-11T17:12:24.144Z,0.80
2019-01-11T17:14:50.621Z,0.90
2019-01-11T17:17:17.035Z,0.80
2019-01-11T17:19:44.639Z,0.90
2019-01-11T17:22:11.058Z,0.90
2019-01-11T17:24:37.537Z,0.80
2019-01-11T17:27:04.155Z,0.80
2019-01-11T17:29:30.561Z,0.90
2019-01-11T17:31:56.935Z,0.90
2019-01-11T17:34:23.375Z,0.90
2019-01-11T17:36:51.111Z,0.90
2019-01-11T17:39:17.537Z,0.90
2019-01-11T17:41:43.905Z,0.90
2019-01-11T17:44:11.460Z,0.90
2019-01-11T17:46:38.965Z,0.90
2019-01-11T17:49:06.402Z,0.90
2019-01-11T17:51:32.904Z,0.90
2019-01-11T17:54:01.733Z,1.00
2019-01-11T17:56:28.580Z,1.00
2019-01-11T17:58:56.732Z,1.00
2019-01-11T18:01:23.367Z,0.90
2019-01-11T18:03:49.839Z,1.00
2019-01-11T18:06:45.330Z,1.00
2019-01-11T18:09:12.056Z,1.00
2019-01-11T18:11:38.539Z,1.00
2019-01-11T18:14:05.171Z,1.00
2019-01-11T18:16:31.885Z,1.10
2019-01-11T18:18:58.346Z,1.00
2019-01-11T18:21:26.856Z,1.10
2019-01-11T18:23:53.323Z,1.10
2019-01-11T18:26:19.816Z,1.10
2019-01-11T18:28:46.185Z,1.10
2019-01-11T18:31:12.657Z,1.10
2019-01-11T18:33:41.113Z,1.10
2019-01-11T18:36:07.669Z,1.10
2019-01-11T18:38:35.298Z,1.10
2019-01-11T18:41:01.912Z,1.10
2019-01-11T18:43:28.699Z,1.10
2019-01-11T18:45:55.291Z,1.20
2019-01-11T18:48:21.792Z,1.10
2019-01-11T18:50:50.357Z,1.10
2019-01-11T18:53:17.101Z,1.20
2019-01-11T18:55:43.517Z,1.10
2019-01-11T18:58:10.028Z,1.10
2019-01-11T19:00:36.482Z,1.20
2019-01-11T19:03:02.969Z,1.30
2019-01-11T19:05:29.301Z,1.20
2019-01-11T19:07:56.887Z,1.20
2019-01-11T19:10:23.918Z,1.20
2019-01-11T19:12:52.735Z,1.30
2019-01-11T19:15:23.905Z,1.30
2019-01-11T19:17:51.640Z,1.30
2019-01-11T19:20:20.545Z,1.30
2019-01-11T19:22:46.962Z,1.40
2019-01-11T19:25:13.552Z,1.30
2019-01-11T19:27:39.984Z,1.30
2019-01-11T19:30:12.999Z,1.30
2019-01-11T19:32:40.027Z,1.40
2019-01-11T19:35:06.429Z,1.40
2019-01-11T19:37:32.894Z,1.40
2019-01-11T19:39:59.416Z,1.40
2019-01-11T19:42:26.250Z,1.40
2019-01-11T19:44:52.688Z,1.40
2019-01-11T19:47:20.002Z,1.40
2019-01-11T19:49:46.574Z,1.40
2019-01-11T19:52:13.033Z,1.40
2019-01-11T19:54:39.459Z,1.50
2019-01-11T19:57:05.920Z,1.50
2019-01-11T19:59:32.425Z,1.50
2019-01-11T20:01:58.929Z,1.50
2019-01-11T20:04:25.433Z,1.50
2019-01-11T20:06:51.867Z,1.50
2019-01-11T20:09:18.380Z,1.50
2019-01-11T20:11:44.783Z,1.50
2019-01-11T20:14:12.374Z,1.50
2019-01-11T20:16:38.959Z,1.50
2019-01-11T20:19:05.436Z,1.50
2019-01-11T20:21:31.889Z,1.60
2019-01-11T20:23:58.307Z,1.60
2019-01-11T20:26:24.778Z,1.70
2019-01-11T20:28:51.236Z,1.70
2019-01-11T20:31:17.682Z,1.70
2019-01-11T20:33:44.228Z,1.70
2019-01-11T20:36:10.576Z,1.70
2019-01-11T20:38:37.063Z,1.70
2019-01-11T20:41:03.504Z,1.70
2019-01-11T20:43:29.999Z,1.70
2019-01-11T20:46:02.906Z,1.70
2019-01-11T20:48:24.836Z,1.70
2019-01-11T20:50:51.422Z,1.70
2019-01-11T20:53:18.952Z,1.70
2019-01-11T20:55:45.485Z,1.80
2019-01-11T20:58:14.056Z,1.80
2019-01-11T21:00:40.434Z,1.80
2019-01-11T21:03:06.932Z,1.80
2019-01-11T21:05:33.314Z,1.90
2019-01-11T21:07:59.791Z,1.90
2019-01-11T21:10:26.775Z,1.90
2019-01-11T21:12:53.274Z,1.90
2019-01-11T21:15:22.446Z,2.00
2019-01-11T21:17:48.958Z,2.00
2019-01-11T21:20:17.461Z,2.00
2019-01-11T21:22:44.695Z,2.00
2019-01-11T21:25:12.883Z,2.00
2019-01-11T21:27:40.165Z,1.90
2019-01-11T21:30:12.790Z,1.90
2019-01-11T21:32:39.680Z,1.90
2019-01-11T21:35:07.098Z,2.00
2019-01-11T21:37:33.518Z,1.90
2019-01-11T21:40:04.603Z,1.90
2019-01-11T21:42:31.153Z,2.00
2019-01-11T21:44:57.597Z,2.00
2019-01-11T21:47:24.061Z,2.00
2019-01-11T21:49:51.271Z,2.00
2019-01-11T21:52:17.823Z,2.00
2019-01-11T21:54:44.376Z,2.10
2019-01-11T21:57:10.920Z,2.00
2019-01-11T21:59:39.256Z,1.90
2019-01-11T22:02:07.617Z,1.90
2019-01-11T22:04:34.067Z,1.90
2019-01-11T22:07:00.630Z,1.80
2019-01-11T22:09:28.915Z,1.80
2019-01-11T22:11:55.358Z,1.80
2019-01-11T22:14:21.848Z,1.80
2019-01-11T22:16:48.717Z,1.80
2019-01-11T22:19:15.070Z,1.80
2019-01-11T22:21:41.556Z,1.70
2019-01-11T22:24:07.970Z,1.80
2019-01-11T22:26:34.399Z,1.80
2019-01-11T22:29:00.881Z,1.80
2019-01-11T22:31:27.250Z,1.80
2019-01-11T22:33:53.915Z,1.80
2019-01-11T22:36:20.352Z,1.80
2019-01-11T22:38:46.748Z,1.90
2019-01-11T22:41:13.287Z,2.00
2019-01-11T22:43:39.851Z,1.90
2019-01-11T22:46:06.691Z,1.90
2019-01-11T22:48:33.123Z,2.00
2019-01-11T22:50:59.720Z,1.90
2019-01-11T22:53:26.107Z,1.90
2019-01-11T22:55:52.781Z,1.90
2019-01-11T22:58:19.419Z,1.90
2019-01-11T23:01:11.121Z,1.80
2019-01-11T23:03:38.596Z,1.80
2019-01-11T23:06:21.046Z,1.80
2019-01-11T23:08:47.502Z,1.70
2019-01-11T23:11:20.928Z,1.70
2019-01-11T23:13:47.364Z,1.60
2019-01-11T23:16:17.537Z,1.60
2019-01-11T23:18:45.094Z,1.50
2019-01-11T23:21:11.523Z,1.40
2019-01-11T23:23:37.880Z,1.30
2019-01-11T23:26:04.307Z,1.30
2019-01-11T23:28:31.779Z,1.20
2019-01-11T23:30:58.188Z,1.20
2019-01-11T23:33:24.571Z,1.10
2019-01-11T23:35:51.001Z,1.10
2019-01-11T23:38:17.451Z,1.00
2019-01-11T23:40:43.934Z,1.00
2019-01-11T23:43:10.312Z,1.00
2019-01-11T23:45:36.763Z,0.90
2019-01-11T23:48:03.122Z,0.80
2019-01-11T23:50:29.568Z,0.80
2019-01-11T23:52:55.958Z,0.80
2019-01-11T23:55:22.444Z,0.80
2019-01-11T23:57:48.824Z,0.80
